Accueil
METAR-TAF:

METAR-TAF

Aéroports :

Port Moresby, Papouasie-Nouvelle-Guinée

Aéroport de Port Moresby-Jacksons

latitude: 09-26S, longitude: 147-13E, altitude: 38 m

Observation

Le bulletin a été fait il y a 1 heure et 3 minutes, à 11:00 UTC
Vent calme
Température 26°C
Humidité 84%
Pression 1008 hPa
Visibilité 10 km ou plus
Nuages épars à une hauteur de 4000 ft

METAR: AYPY 121100Z 00000KT 9999 SCT040 26/23 Q1008

Heure: 22:03 (12:03 UTC)

Prévision

Le bulletin a été fait il y a 3 heures et 3 minutes, à 09:00 UTC
Prévision valable du 12 à 12 UTC au 13 à 12 UTC
Vent 3 kt de direction variable
Visibilité 10 km ou plus
Nuages épars à une hauteur de 3000 ft
A partir de 12 à 2100 UTC
Vent kt de nord
Visibilité 10 km ou plus
Quelques nuages à une hauteur de 1800 ft
Nuages épars à une hauteur de 14000 ft

TAF: AYPY 120900Z 1212/1312 VRB03KT 9999 SCT030 FM122100 00000KT 9999 FEW018 SCT140

Observations et prévisions météorologiques de plus de 4000 aéroports (messages METAR et TAF).

Les stations disponibles sont représentées par des disques jaunes et rouges sur la carte.

Passer la souris dessus pour voir le nom de la station.

Cliquer dessus pour voir les observations et prévisions météorologiques.

Pour changer de carte: cliquez sur les boutons verts avec une croix noire pour zoomer, sur le bouton vert avec un tiret pour effectuer un zoom arrière, ou sur les flèches vertes pour les cartes adjacentes.


METAR-TAF: